sensor_id;sensor_type;location;lat;lon;timestamp;P1;durP1;ratioP1;P2;durP2;ratioP2
76729;SDS011;65653;53.106;18.046;2023-09-30T00:02:21;12.00;;;6.60;;
76729;SDS011;65653;53.106;18.046;2023-09-30T00:04:48;7.10;;;5.70;;
76729;SDS011;65653;53.106;18.046;2023-09-30T00:07:14;7.80;;;5.80;;
76729;SDS011;65653;53.106;18.046;2023-09-30T00:09:41;10.00;;;6.20;;
76729;SDS011;65653;53.106;18.046;2023-09-30T00:12:07;7.20;;;5.20;;
76729;SDS011;65653;53.106;18.046;2023-09-30T00:14:34;8.30;;;5.90;;
76729;SDS011;65653;53.106;18.046;2023-09-30T00:17:00;6.10;;;4.90;;
76729;SDS011;65653;53.106;18.046;2023-09-30T00:19:27;7.60;;;5.70;;
76729;SDS011;65653;53.106;18.046;2023-09-30T00:21:53;7.50;;;5.30;;
76729;SDS011;65653;53.106;18.046;2023-09-30T00:24:20;7.00;;;5.80;;
76729;SDS011;65653;53.106;18.046;2023-09-30T00:26:46;7.10;;;6.00;;
76729;SDS011;65653;53.106;18.046;2023-09-30T00:29:13;8.20;;;5.80;;
76729;SDS011;65653;53.106;18.046;2023-09-30T00:31:40;9.20;;;6.20;;
76729;SDS011;65653;53.106;18.046;2023-09-30T00:34:07;10.20;;;7.00;;
76729;SDS011;65653;53.106;18.046;2023-09-30T00:36:34;9.60;;;6.00;;
76729;SDS011;65653;53.106;18.046;2023-09-30T00:39:01;10.80;;;6.60;;
76729;SDS011;65653;53.106;18.046;2023-09-30T00:41:28;10.40;;;7.20;;
76729;SDS011;65653;53.106;18.046;2023-09-30T00:43:55;9.10;;;5.90;;
76729;SDS011;65653;53.106;18.046;2023-09-30T00:46:25;9.10;;;6.40;;
76729;SDS011;65653;53.106;18.046;2023-09-30T00:48:54;11.40;;;6.50;;
76729;SDS011;65653;53.106;18.046;2023-09-30T00:51:23;8.60;;;6.10;;
76729;SDS011;65653;53.106;18.046;2023-09-30T00:53:54;8.40;;;5.90;;
76729;SDS011;65653;53.106;18.046;2023-09-30T00:56:24;15.00;;;7.70;;
76729;SDS011;65653;53.106;18.046;2023-09-30T00:58:54;10.70;;;6.30;;
76729;SDS011;65653;53.106;18.046;2023-09-30T01:01:21;9.30;;;7.00;;
76729;SDS011;65653;53.106;18.046;2023-09-30T01:03:48;11.30;;;6.80;;
76729;SDS011;65653;53.106;18.046;2023-09-30T01:06:15;9.30;;;6.90;;
76729;SDS011;65653;53.106;18.046;2023-09-30T01:08:41;8.80;;;6.40;;
76729;SDS011;65653;53.106;18.046;2023-09-30T01:11:08;10.20;;;7.20;;
76729;SDS011;65653;53.106;18.046;2023-09-30T01:13:36;10.90;;;7.50;;
76729;SDS011;65653;53.106;18.046;2023-09-30T01:16:07;10.00;;;7.80;;
76729;SDS011;65653;53.106;18.046;2023-09-30T01:18:38;9.60;;;6.60;;
76729;SDS011;65653;53.106;18.046;2023-09-30T01:21:06;9.30;;;7.00;;
76729;SDS011;65653;53.106;18.046;2023-09-30T01:23:33;7.80;;;6.50;;
76729;SDS011;65653;53.106;18.046;2023-09-30T01:26:05;10.50;;;6.90;;
76729;SDS011;65653;53.106;18.046;2023-09-30T01:28:35;11.30;;;7.50;;
76729;SDS011;65653;53.106;18.046;2023-09-30T01:31:04;10.10;;;7.30;;
76729;SDS011;65653;53.106;18.046;2023-09-30T01:33:31;13.70;;;8.00;;
76729;SDS011;65653;53.106;18.046;2023-09-30T01:35:59;12.40;;;8.40;;
76729;SDS011;65653;53.106;18.046;2023-09-30T01:38:25;13.00;;;7.60;;
76729;SDS011;65653;53.106;18.046;2023-09-30T01:40:52;13.20;;;8.00;;
76729;SDS011;65653;53.106;18.046;2023-09-30T01:43:20;14.30;;;7.80;;
76729;SDS011;65653;53.106;18.046;2023-09-30T01:45:47;11.70;;;8.00;;
76729;SDS011;65653;53.106;18.046;2023-09-30T01:48:14;11.20;;;7.80;;
76729;SDS011;65653;53.106;18.046;2023-09-30T01:50:40;12.90;;;8.70;;
76729;SDS011;65653;53.106;18.046;2023-09-30T01:53:07;12.30;;;7.80;;
76729;SDS011;65653;53.106;18.046;2023-09-30T01:55:33;13.30;;;8.40;;
76729;SDS011;65653;53.106;18.046;2023-09-30T01:58:00;15.00;;;8.90;;
76729;SDS011;65653;53.106;18.046;2023-09-30T02:00:27;11.80;;;8.70;;
76729;SDS011;65653;53.106;18.046;2023-09-30T02:02:55;13.30;;;9.40;;
76729;SDS011;65653;53.106;18.046;2023-09-30T02:05:22;11.60;;;8.80;;
76729;SDS011;65653;53.106;18.046;2023-09-30T02:07:50;14.30;;;9.30;;
76729;SDS011;65653;53.106;18.046;2023-09-30T02:10:17;15.00;;;9.60;;
76729;SDS011;65653;53.106;18.046;2023-09-30T02:15:14;12.60;;;9.00;;
76729;SDS011;65653;53.106;18.046;2023-09-30T02:17:41;9.00;;;7.10;;
76729;SDS011;65653;53.106;18.046;2023-09-30T02:20:11;12.70;;;9.10;;
76729;SDS011;65653;53.106;18.046;2023-09-30T02:22:42;12.30;;;8.70;;
76729;SDS011;65653;53.106;18.046;2023-09-30T02:25:10;13.50;;;9.20;;
76729;SDS011;65653;53.106;18.046;2023-09-30T02:27:41;15.50;;;9.30;;
76729;SDS011;65653;53.106;18.046;2023-09-30T02:30:09;12.00;;;8.90;;
76729;SDS011;65653;53.106;18.046;2023-09-30T02:32:38;11.00;;;8.90;;
76729;SDS011;65653;53.106;18.046;2023-09-30T02:35:06;13.00;;;9.20;;
76729;SDS011;65653;53.106;18.046;2023-09-30T02:40:03;13.20;;;9.10;;
76729;SDS011;65653;53.106;18.046;2023-09-30T02:42:31;16.50;;;10.70;;
76729;SDS011;65653;53.106;18.046;2023-09-30T02:45:01;13.40;;;9.00;;
76729;SDS011;65653;53.106;18.046;2023-09-30T02:47:27;10.30;;;8.10;;
76729;SDS011;65653;53.106;18.046;2023-09-30T02:49:56;10.10;;;7.80;;
76729;SDS011;65653;53.106;18.046;2023-09-30T02:52:23;10.00;;;7.80;;
76729;SDS011;65653;53.106;18.046;2023-09-30T02:54:50;10.80;;;7.80;;
76729;SDS011;65653;53.106;18.046;2023-09-30T02:57:18;9.70;;;7.90;;
76729;SDS011;65653;53.106;18.046;2023-09-30T02:59:45;10.80;;;8.20;;
76729;SDS011;65653;53.106;18.046;2023-09-30T03:02:12;10.50;;;8.10;;
76729;SDS011;65653;53.106;18.046;2023-09-30T03:04:39;10.20;;;7.70;;
76729;SDS011;65653;53.106;18.046;2023-09-30T03:07:06;9.30;;;7.70;;
76729;SDS011;65653;53.106;18.046;2023-09-30T03:09:33;11.40;;;7.90;;
76729;SDS011;65653;53.106;18.046;2023-09-30T03:12:01;10.10;;;7.80;;
76729;SDS011;65653;53.106;18.046;2023-09-30T03:14:31;9.50;;;7.80;;
76729;SDS011;65653;53.106;18.046;2023-09-30T03:16:58;14.50;;;8.70;;
76729;SDS011;65653;53.106;18.046;2023-09-30T03:19:25;14.80;;;8.20;;
76729;SDS011;65653;53.106;18.046;2023-09-30T03:21:52;12.30;;;7.80;;
76729;SDS011;65653;53.106;18.046;2023-09-30T03:24:18;8.80;;;7.20;;
76729;SDS011;65653;53.106;18.046;2023-09-30T03:26:45;14.20;;;10.30;;
76729;SDS011;65653;53.106;18.046;2023-09-30T03:29:11;13.20;;;9.30;;
76729;SDS011;65653;53.106;18.046;2023-09-30T03:31:38;10.60;;;8.40;;
76729;SDS011;65653;53.106;18.046;2023-09-30T03:34:05;13.40;;;9.10;;
76729;SDS011;65653;53.106;18.046;2023-09-30T03:36:32;12.40;;;9.80;;
76729;SDS011;65653;53.106;18.046;2023-09-30T03:38:59;10.10;;;8.70;;
76729;SDS011;65653;53.106;18.046;2023-09-30T03:41:35;12.30;;;9.80;;
76729;SDS011;65653;53.106;18.046;2023-09-30T03:44:03;10.70;;;7.80;;
76729;SDS011;65653;53.106;18.046;2023-09-30T03:46:30;12.00;;;9.30;;
76729;SDS011;65653;53.106;18.046;2023-09-30T03:48:56;13.70;;;9.00;;
76729;SDS011;65653;53.106;18.046;2023-09-30T03:51:25;11.00;;;8.50;;
76729;SDS011;65653;53.106;18.046;2023-09-30T03:53:52;12.80;;;9.30;;
76729;SDS011;65653;53.106;18.046;2023-09-30T03:56:18;10.70;;;7.80;;
76729;SDS011;65653;53.106;18.046;2023-09-30T03:58:45;8.60;;;6.70;;
76729;SDS011;65653;53.106;18.046;2023-09-30T04:01:14;11.00;;;8.00;;
76729;SDS011;65653;53.106;18.046;2023-09-30T04:03:41;8.60;;;6.20;;
76729;SDS011;65653;53.106;18.046;2023-09-30T04:06:09;7.10;;;4.70;;
76729;SDS011;65653;53.106;18.046;2023-09-30T04:08:36;5.50;;;3.30;;
76729;SDS011;65653;53.106;18.046;2023-09-30T04:11:02;4.20;;;2.00;;
76729;SDS011;65653;53.106;18.046;2023-09-30T04:13:29;3.50;;;2.00;;
76729;SDS011;65653;53.106;18.046;2023-09-30T04:15:56;3.30;;;1.90;;
76729;SDS011;65653;53.106;18.046;2023-09-30T04:18:24;2.90;;;1.70;;
76729;SDS011;65653;53.106;18.046;2023-09-30T04:20:52;2.30;;;1.40;;
76729;SDS011;65653;53.106;18.046;2023-09-30T04:23:19;4.50;;;1.70;;
76729;SDS011;65653;53.106;18.046;2023-09-30T04:25:46;2.40;;;1.40;;
76729;SDS011;65653;53.106;18.046;2023-09-30T04:28:13;2.50;;;1.30;;
76729;SDS011;65653;53.106;18.046;2023-09-30T04:30:40;2.00;;;1.30;;
76729;SDS011;65653;53.106;18.046;2023-09-30T04:33:07;3.60;;;1.70;;
76729;SDS011;65653;53.106;18.046;2023-09-30T04:35:35;3.60;;;1.50;;
76729;SDS011;65653;53.106;18.046;2023-09-30T04:38:01;2.70;;;1.10;;
76729;SDS011;65653;53.106;18.046;2023-09-30T04:40:30;3.20;;;0.90;;
76729;SDS011;65653;53.106;18.046;2023-09-30T04:42:57;2.80;;;0.90;;
76729;SDS011;65653;53.106;18.046;2023-09-30T04:45:26;2.80;;;1.10;;
76729;SDS011;65653;53.106;18.046;2023-09-30T04:47:53;4.30;;;1.10;;
76729;SDS011;65653;53.106;18.046;2023-09-30T04:50:22;2.90;;;0.90;;
76729;SDS011;65653;53.106;18.046;2023-09-30T04:52:49;2.80;;;1.00;;
76729;SDS011;65653;53.106;18.046;2023-09-30T04:55:17;3.10;;;1.10;;
76729;SDS011;65653;53.106;18.046;2023-09-30T04:57:45;3.80;;;1.00;;
76729;SDS011;65653;53.106;18.046;2023-09-30T05:00:14;3.30;;;1.20;;
76729;SDS011;65653;53.106;18.046;2023-09-30T05:02:43;4.80;;;1.00;;
76729;SDS011;65653;53.106;18.046;2023-09-30T05:05:11;5.80;;;1.10;;
76729;SDS011;65653;53.106;18.046;2023-09-30T05:07:37;3.30;;;0.80;;
76729;SDS011;65653;53.106;18.046;2023-09-30T05:10:04;4.30;;;1.10;;
76729;SDS011;65653;53.106;18.046;2023-09-30T05:12:31;3.10;;;1.00;;
76729;SDS011;65653;53.106;18.046;2023-09-30T05:14:59;3.00;;;0.80;;
76729;SDS011;65653;53.106;18.046;2023-09-30T05:17:26;3.90;;;1.00;;
76729;SDS011;65653;53.106;18.046;2023-09-30T05:19:53;3.80;;;1.10;;
76729;SDS011;65653;53.106;18.046;2023-09-30T05:22:19;4.40;;;1.00;;
76729;SDS011;65653;53.106;18.046;2023-09-30T05:24:51;3.20;;;0.80;;
76729;SDS011;65653;53.106;18.046;2023-09-30T05:27:18;2.50;;;0.80;;
76729;SDS011;65653;53.106;18.046;2023-09-30T05:29:45;4.00;;;0.70;;
76729;SDS011;65653;53.106;18.046;2023-09-30T05:32:12;4.10;;;1.20;;
76729;SDS011;65653;53.106;18.046;2023-09-30T05:34:40;2.70;;;1.20;;
76729;SDS011;65653;53.106;18.046;2023-09-30T05:37:07;6.50;;;1.40;;
76729;SDS011;65653;53.106;18.046;2023-09-30T05:39:34;4.80;;;1.20;;
76729;SDS011;65653;53.106;18.046;2023-09-30T05:42:01;2.80;;;1.10;;
76729;SDS011;65653;53.106;18.046;2023-09-30T05:44:28;5.30;;;1.20;;
76729;SDS011;65653;53.106;18.046;2023-09-30T05:46:55;3.10;;;1.10;;
76729;SDS011;65653;53.106;18.046;2023-09-30T05:49:22;4.90;;;1.20;;
76729;SDS011;65653;53.106;18.046;2023-09-30T05:51:49;5.00;;;1.20;;
76729;SDS011;65653;53.106;18.046;2023-09-30T05:54:16;5.60;;;1.50;;
76729;SDS011;65653;53.106;18.046;2023-09-30T05:56:43;4.50;;;1.10;;
76729;SDS011;65653;53.106;18.046;2023-09-30T05:59:09;4.80;;;1.50;;
76729;SDS011;65653;53.106;18.046;2023-09-30T06:01:36;5.80;;;1.10;;
76729;SDS011;65653;53.106;18.046;2023-09-30T06:04:04;7.80;;;1.20;;
76729;SDS011;65653;53.106;18.046;2023-09-30T06:06:32;4.30;;;1.20;;
76729;SDS011;65653;53.106;18.046;2023-09-30T06:08:59;4.70;;;1.30;;
76729;SDS011;65653;53.106;18.046;2023-09-30T06:11:25;5.30;;;1.50;;
76729;SDS011;65653;53.106;18.046;2023-09-30T06:13:54;4.50;;;1.10;;
76729;SDS011;65653;53.106;18.046;2023-09-30T06:16:21;4.50;;;1.40;;
76729;SDS011;65653;53.106;18.046;2023-09-30T06:18:49;6.50;;;1.80;;
76729;SDS011;65653;53.106;18.046;2023-09-30T06:21:15;6.60;;;1.90;;
76729;SDS011;65653;53.106;18.046;2023-09-30T06:23:50;3.50;;;1.10;;
76729;SDS011;65653;53.106;18.046;2023-09-30T06:26:20;3.70;;;1.30;;
76729;SDS011;65653;53.106;18.046;2023-09-30T06:28:47;4.50;;;0.90;;
76729;SDS011;65653;53.106;18.046;2023-09-30T06:31:14;4.50;;;1.40;;
76729;SDS011;65653;53.106;18.046;2023-09-30T06:33:41;3.90;;;1.30;;
76729;SDS011;65653;53.106;18.046;2023-09-30T06:36:17;5.50;;;1.20;;
76729;SDS011;65653;53.106;18.046;2023-09-30T06:38:43;3.10;;;1.20;;
76729;SDS011;65653;53.106;18.046;2023-09-30T06:41:16;6.30;;;1.60;;
76729;SDS011;65653;53.106;18.046;2023-09-30T06:43:44;6.30;;;1.50;;
76729;SDS011;65653;53.106;18.046;2023-09-30T06:46:11;8.10;;;1.80;;
76729;SDS011;65653;53.106;18.046;2023-09-30T06:48:37;4.90;;;1.50;;
76729;SDS011;65653;53.106;18.046;2023-09-30T06:51:06;4.00;;;1.20;;
76729;SDS011;65653;53.106;18.046;2023-09-30T06:53:32;4.10;;;1.30;;
76729;SDS011;65653;53.106;18.046;2023-09-30T06:56:04;7.40;;;1.30;;
76729;SDS011;65653;53.106;18.046;2023-09-30T07:00:58;3.70;;;1.10;;
76729;SDS011;65653;53.106;18.046;2023-09-30T07:03:25;6.50;;;1.60;;
76729;SDS011;65653;53.106;18.046;2023-09-30T07:05:51;5.70;;;1.20;;
76729;SDS011;65653;53.106;18.046;2023-09-30T07:08:20;6.00;;;1.40;;
76729;SDS011;65653;53.106;18.046;2023-09-30T07:10:49;3.50;;;0.90;;
76729;SDS011;65653;53.106;18.046;2023-09-30T07:13:16;6.40;;;1.40;;
76729;SDS011;65653;53.106;18.046;2023-09-30T07:15:44;6.30;;;1.30;;
76729;SDS011;65653;53.106;18.046;2023-09-30T07:18:10;5.70;;;1.80;;
76729;SDS011;65653;53.106;18.046;2023-09-30T07:20:38;5.60;;;1.60;;
76729;SDS011;65653;53.106;18.046;2023-09-30T07:23:04;5.10;;;1.40;;
76729;SDS011;65653;53.106;18.046;2023-09-30T07:25:32;9.80;;;1.50;;
76729;SDS011;65653;53.106;18.046;2023-09-30T07:27:58;9.10;;;1.70;;
76729;SDS011;65653;53.106;18.046;2023-09-30T07:30:27;6.60;;;1.60;;
76729;SDS011;65653;53.106;18.046;2023-09-30T07:32:54;7.80;;;1.80;;
76729;SDS011;65653;53.106;18.046;2023-09-30T07:35:22;5.10;;;1.60;;
76729;SDS011;65653;53.106;18.046;2023-09-30T07:37:49;4.70;;;1.70;;
76729;SDS011;65653;53.106;18.046;2023-09-30T07:40:19;4.50;;;1.50;;
76729;SDS011;65653;53.106;18.046;2023-09-30T07:42:47;5.70;;;1.90;;
76729;SDS011;65653;53.106;18.046;2023-09-30T07:45:13;4.90;;;1.70;;
76729;SDS011;65653;53.106;18.046;2023-09-30T07:47:43;5.40;;;1.60;;
76729;SDS011;65653;53.106;18.046;2023-09-30T07:50:12;5.30;;;1.40;;
76729;SDS011;65653;53.106;18.046;2023-09-30T07:52:41;9.20;;;2.00;;
76729;SDS011;65653;53.106;18.046;2023-09-30T07:55:08;6.30;;;1.60;;
76729;SDS011;65653;53.106;18.046;2023-09-30T07:57:36;3.20;;;1.40;;
76729;SDS011;65653;53.106;18.046;2023-09-30T08:00:06;4.60;;;1.50;;
76729;SDS011;65653;53.106;18.046;2023-09-30T08:02:35;8.40;;;1.90;;
76729;SDS011;65653;53.106;18.046;2023-09-30T08:05:02;4.30;;;1.70;;
76729;SDS011;65653;53.106;18.046;2023-09-30T08:07:29;5.80;;;1.70;;
76729;SDS011;65653;53.106;18.046;2023-09-30T08:09:55;8.10;;;1.60;;
76729;SDS011;65653;53.106;18.046;2023-09-30T08:12:22;8.10;;;1.60;;
76729;SDS011;65653;53.106;18.046;2023-09-30T08:14:48;9.50;;;2.10;;
76729;SDS011;65653;53.106;18.046;2023-09-30T08:17:17;5.80;;;2.10;;
76729;SDS011;65653;53.106;18.046;2023-09-30T08:19:44;8.00;;;1.80;;
76729;SDS011;65653;53.106;18.046;2023-09-30T08:22:10;4.50;;;2.20;;
76729;SDS011;65653;53.106;18.046;2023-09-30T08:24:37;6.60;;;1.90;;
76729;SDS011;65653;53.106;18.046;2023-09-30T08:27:03;4.90;;;1.70;;
76729;SDS011;65653;53.106;18.046;2023-09-30T08:29:29;5.50;;;1.70;;
76729;SDS011;65653;53.106;18.046;2023-09-30T08:31:56;7.80;;;1.90;;
76729;SDS011;65653;53.106;18.046;2023-09-30T08:34:22;4.30;;;1.50;;
76729;SDS011;65653;53.106;18.046;2023-09-30T08:36:50;6.00;;;1.70;;
76729;SDS011;65653;53.106;18.046;2023-09-30T08:39:16;5.70;;;1.90;;
76729;SDS011;65653;53.106;18.046;2023-09-30T08:41:43;7.30;;;2.10;;
76729;SDS011;65653;53.106;18.046;2023-09-30T08:44:11;5.80;;;2.30;;
76729;SDS011;65653;53.106;18.046;2023-09-30T08:46:39;7.30;;;2.10;;
76729;SDS011;65653;53.106;18.046;2023-09-30T08:49:07;8.20;;;1.90;;
76729;SDS011;65653;53.106;18.046;2023-09-30T08:51:34;4.40;;;2.00;;
76729;SDS011;65653;53.106;18.046;2023-09-30T08:54:02;4.70;;;1.90;;
76729;SDS011;65653;53.106;18.046;2023-09-30T08:56:30;6.40;;;1.80;;
76729;SDS011;65653;53.106;18.046;2023-09-30T08:59:02;7.50;;;2.30;;
76729;SDS011;65653;53.106;18.046;2023-09-30T09:01:30;3.50;;;1.70;;
76729;SDS011;65653;53.106;18.046;2023-09-30T09:03:57;4.90;;;1.80;;
76729;SDS011;65653;53.106;18.046;2023-09-30T09:06:24;6.60;;;2.20;;
76729;SDS011;65653;53.106;18.046;2023-09-30T09:08:52;6.30;;;2.10;;
76729;SDS011;65653;53.106;18.046;2023-09-30T09:11:19;5.80;;;2.00;;
76729;SDS011;65653;53.106;18.046;2023-09-30T09:13:47;4.70;;;1.60;;
76729;SDS011;65653;53.106;18.046;2023-09-30T09:16:22;4.80;;;1.60;;
76729;SDS011;65653;53.106;18.046;2023-09-30T09:18:49;5.70;;;2.00;;
76729;SDS011;65653;53.106;18.046;2023-09-30T09:21:21;6.50;;;1.90;;
76729;SDS011;65653;53.106;18.046;2023-09-30T09:23:53;3.60;;;1.60;;
76729;SDS011;65653;53.106;18.046;2023-09-30T09:26:26;5.80;;;2.20;;
76729;SDS011;65653;53.106;18.046;2023-09-30T09:28:56;5.20;;;2.20;;
76729;SDS011;65653;53.106;18.046;2023-09-30T09:31:41;5.50;;;1.70;;
76729;SDS011;65653;53.106;18.046;2023-09-30T09:34:14;6.50;;;2.00;;
76729;SDS011;65653;53.106;18.046;2023-09-30T09:36:41;7.10;;;2.10;;
76729;SDS011;65653;53.106;18.046;2023-09-30T09:39:09;6.50;;;1.80;;
76729;SDS011;65653;53.106;18.046;2023-09-30T09:41:52;6.90;;;2.10;;
76729;SDS011;65653;53.106;18.046;2023-09-30T09:44:19;6.00;;;2.00;;
76729;SDS011;65653;53.106;18.046;2023-09-30T09:46:48;10.80;;;7.30;;
76729;SDS011;65653;53.106;18.046;2023-09-30T09:49:16;12.90;;;8.90;;
76729;SDS011;65653;53.106;18.046;2023-09-30T09:51:44;5.20;;;2.00;;
76729;SDS011;65653;53.106;18.046;2023-09-30T09:54:12;8.20;;;1.70;;
76729;SDS011;65653;53.106;18.046;2023-09-30T09:56:38;7.30;;;2.30;;
76729;SDS011;65653;53.106;18.046;2023-09-30T09:59:05;6.10;;;2.00;;
76729;SDS011;65653;53.106;18.046;2023-09-30T10:01:35;7.90;;;2.20;;
76729;SDS011;65653;53.106;18.046;2023-09-30T10:04:02;8.60;;;2.20;;
76729;SDS011;65653;53.106;18.046;2023-09-30T10:06:28;5.70;;;2.00;;
76729;SDS011;65653;53.106;18.046;2023-09-30T10:08:55;6.90;;;2.00;;
76729;SDS011;65653;53.106;18.046;2023-09-30T10:11:23;6.70;;;2.30;;
76729;SDS011;65653;53.106;18.046;2023-09-30T10:13:58;5.30;;;1.90;;
76729;SDS011;65653;53.106;18.046;2023-09-30T10:19:12;6.00;;;2.10;;
76729;SDS011;65653;53.106;18.046;2023-09-30T10:21:53;4.40;;;2.00;;
76729;SDS011;65653;53.106;18.046;2023-09-30T10:24:57;6.60;;;1.90;;
76729;SDS011;65653;53.106;18.046;2023-09-30T10:29:58;4.70;;;1.90;;
76729;SDS011;65653;53.106;18.046;2023-09-30T10:35:19;4.90;;;2.00;;
76729;SDS011;65653;53.106;18.046;2023-09-30T10:37:47;5.50;;;2.00;;
76729;SDS011;65653;53.106;18.046;2023-09-30T10:40:27;3.50;;;1.50;;
76729;SDS011;65653;53.106;18.046;2023-09-30T10:42:55;7.70;;;1.60;;
76729;SDS011;65653;53.106;18.046;2023-09-30T10:48:48;7.00;;;2.00;;
76729;SDS011;65653;53.106;18.046;2023-09-30T10:50:58;6.10;;;1.90;;
76729;SDS011;65653;53.106;18.046;2023-09-30T10:53:27;4.70;;;2.20;;
76729;SDS011;65653;53.106;18.046;2023-09-30T10:55:55;5.60;;;1.80;;
76729;SDS011;65653;53.106;18.046;2023-09-30T11:01:31;7.40;;;1.90;;
76729;SDS011;65653;53.106;18.046;2023-09-30T11:04:01;6.00;;;2.20;;
76729;SDS011;65653;53.106;18.046;2023-09-30T11:06:31;3.50;;;1.70;;
76729;SDS011;65653;53.106;18.046;2023-09-30T11:08:59;4.80;;;1.80;;
76729;SDS011;65653;53.106;18.046;2023-09-30T11:11:33;5.20;;;1.80;;
76729;SDS011;65653;53.106;18.046;2023-09-30T11:14:03;6.30;;;2.20;;
76729;SDS011;65653;53.106;18.046;2023-09-30T11:16:43;6.60;;;2.10;;
76729;SDS011;65653;53.106;18.046;2023-09-30T11:19:11;6.40;;;2.00;;
76729;SDS011;65653;53.106;18.046;2023-09-30T11:21:41;5.50;;;1.90;;
76729;SDS011;65653;53.106;18.046;2023-09-30T11:24:10;4.20;;;1.80;;
76729;SDS011;65653;53.106;18.046;2023-09-30T11:26:37;4.00;;;1.80;;
76729;SDS011;65653;53.106;18.046;2023-09-30T11:29:04;5.00;;;1.60;;
76729;SDS011;65653;53.106;18.046;2023-09-30T11:31:42;4.00;;;1.60;;
76729;SDS011;65653;53.106;18.046;2023-09-30T11:34:10;7.30;;;1.80;;
76729;SDS011;65653;53.106;18.046;2023-09-30T11:36:47;4.50;;;1.70;;
76729;SDS011;65653;53.106;18.046;2023-09-30T11:39:22;5.20;;;1.60;;
76729;SDS011;65653;53.106;18.046;2023-09-30T11:41:50;4.90;;;1.40;;
76729;SDS011;65653;53.106;18.046;2023-09-30T11:44:16;3.80;;;1.10;;
76729;SDS011;65653;53.106;18.046;2023-09-30T11:46:47;5.00;;;1.50;;
76729;SDS011;65653;53.106;18.046;2023-09-30T11:49:26;4.10;;;1.50;;
76729;SDS011;65653;53.106;18.046;2023-09-30T11:52:07;5.30;;;1.70;;
76729;SDS011;65653;53.106;18.046;2023-09-30T11:54:42;5.00;;;1.40;;
76729;SDS011;65653;53.106;18.046;2023-09-30T11:57:19;4.50;;;1.40;;
76729;SDS011;65653;53.106;18.046;2023-09-30T12:02:13;4.90;;;1.30;;
76729;SDS011;65653;53.106;18.046;2023-09-30T12:04:44;2.60;;;1.20;;
76729;SDS011;65653;53.106;18.046;2023-09-30T12:07:13;5.60;;;1.40;;
76729;SDS011;65653;53.106;18.046;2023-09-30T12:09:40;3.60;;;1.60;;
76729;SDS011;65653;53.106;18.046;2023-09-30T12:12:07;4.30;;;1.40;;
76729;SDS011;65653;53.106;18.046;2023-09-30T12:14:37;5.90;;;1.90;;
76729;SDS011;65653;53.106;18.046;2023-09-30T12:17:04;4.90;;;1.80;;
76729;SDS011;65653;53.106;18.046;2023-09-30T12:19:31;4.60;;;1.60;;
76729;SDS011;65653;53.106;18.046;2023-09-30T12:21:58;4.80;;;1.80;;
76729;SDS011;65653;53.106;18.046;2023-09-30T12:24:24;5.00;;;1.70;;
76729;SDS011;65653;53.106;18.046;2023-09-30T12:26:52;6.20;;;1.40;;
76729;SDS011;65653;53.106;18.046;2023-09-30T12:29:19;6.00;;;1.60;;
76729;SDS011;65653;53.106;18.046;2023-09-30T12:31:48;4.70;;;1.50;;
76729;SDS011;65653;53.106;18.046;2023-09-30T12:34:16;4.90;;;1.90;;
76729;SDS011;65653;53.106;18.046;2023-09-30T12:36:43;3.80;;;1.40;;
76729;SDS011;65653;53.106;18.046;2023-09-30T12:39:10;3.90;;;2.00;;
76729;SDS011;65653;53.106;18.046;2023-09-30T12:41:38;5.80;;;1.90;;
76729;SDS011;65653;53.106;18.046;2023-09-30T12:44:06;5.10;;;1.60;;
76729;SDS011;65653;53.106;18.046;2023-09-30T12:46:33;3.10;;;1.60;;
76729;SDS011;65653;53.106;18.046;2023-09-30T12:49:03;4.80;;;1.90;;
76729;SDS011;65653;53.106;18.046;2023-09-30T12:51:30;3.70;;;1.50;;
76729;SDS011;65653;53.106;18.046;2023-09-30T12:53:58;5.40;;;1.50;;
76729;SDS011;65653;53.106;18.046;2023-09-30T12:56:25;5.70;;;1.50;;
76729;SDS011;65653;53.106;18.046;2023-09-30T12:58:52;5.00;;;1.50;;
76729;SDS011;65653;53.106;18.046;2023-09-30T13:01:20;5.10;;;1.50;;
76729;SDS011;65653;53.106;18.046;2023-09-30T13:03:46;4.80;;;1.60;;
76729;SDS011;65653;53.106;18.046;2023-09-30T13:06:13;5.30;;;1.60;;
76729;SDS011;65653;53.106;18.046;2023-09-30T13:08:41;3.90;;;1.50;;
76729;SDS011;65653;53.106;18.046;2023-09-30T13:11:08;3.80;;;1.60;;
76729;SDS011;65653;53.106;18.046;2023-09-30T13:13:35;4.70;;;1.70;;
76729;SDS011;65653;53.106;18.046;2023-09-30T13:16:03;4.80;;;1.50;;
76729;SDS011;65653;53.106;18.046;2023-09-30T13:18:33;4.90;;;1.80;;
76729;SDS011;65653;53.106;18.046;2023-09-30T13:21:00;3.60;;;1.80;;
76729;SDS011;65653;53.106;18.046;2023-09-30T13:23:27;4.30;;;1.70;;
76729;SDS011;65653;53.106;18.046;2023-09-30T13:25:54;4.90;;;1.60;;
76729;SDS011;65653;53.106;18.046;2023-09-30T13:28:20;4.70;;;1.40;;
76729;SDS011;65653;53.106;18.046;2023-09-30T13:30:47;5.30;;;1.70;;
76729;SDS011;65653;53.106;18.046;2023-09-30T13:33:14;5.40;;;1.70;;
76729;SDS011;65653;53.106;18.046;2023-09-30T13:35:40;6.10;;;1.60;;
76729;SDS011;65653;53.106;18.046;2023-09-30T13:38:07;4.60;;;1.50;;
76729;SDS011;65653;53.106;18.046;2023-09-30T13:40:34;4.80;;;1.80;;
76729;SDS011;65653;53.106;18.046;2023-09-30T13:43:01;7.20;;;1.70;;
76729;SDS011;65653;53.106;18.046;2023-09-30T13:45:34;4.60;;;1.80;;
76729;SDS011;65653;53.106;18.046;2023-09-30T13:48:00;3.80;;;1.50;;
76729;SDS011;65653;53.106;18.046;2023-09-30T13:50:27;5.10;;;1.70;;
76729;SDS011;65653;53.106;18.046;2023-09-30T13:52:53;6.10;;;1.70;;
76729;SDS011;65653;53.106;18.046;2023-09-30T13:55:20;4.60;;;1.90;;
76729;SDS011;65653;53.106;18.046;2023-09-30T13:57:46;3.40;;;1.40;;
76729;SDS011;65653;53.106;18.046;2023-09-30T14:00:13;4.30;;;1.40;;
76729;SDS011;65653;53.106;18.046;2023-09-30T14:02:41;7.00;;;1.70;;
76729;SDS011;65653;53.106;18.046;2023-09-30T14:05:07;3.00;;;1.60;;
76729;SDS011;65653;53.106;18.046;2023-09-30T14:07:34;3.40;;;1.30;;
76729;SDS011;65653;53.106;18.046;2023-09-30T14:10:02;3.90;;;1.50;;
76729;SDS011;65653;53.106;18.046;2023-09-30T14:12:30;5.90;;;1.80;;
76729;SDS011;65653;53.106;18.046;2023-09-30T14:14:57;4.70;;;1.50;;
76729;SDS011;65653;53.106;18.046;2023-09-30T14:17:24;3.60;;;1.60;;
76729;SDS011;65653;53.106;18.046;2023-09-30T14:19:51;3.50;;;1.50;;
76729;SDS011;65653;53.106;18.046;2023-09-30T14:22:18;4.40;;;1.50;;
76729;SDS011;65653;53.106;18.046;2023-09-30T14:24:44;4.70;;;2.00;;
76729;SDS011;65653;53.106;18.046;2023-09-30T14:27:11;5.50;;;1.90;;
76729;SDS011;65653;53.106;18.046;2023-09-30T14:29:40;3.90;;;1.20;;
76729;SDS011;65653;53.106;18.046;2023-09-30T14:32:06;5.40;;;1.60;;
76729;SDS011;65653;53.106;18.046;2023-09-30T14:34:33;4.50;;;1.70;;
76729;SDS011;65653;53.106;18.046;2023-09-30T14:36:59;4.30;;;1.40;;
76729;SDS011;65653;53.106;18.046;2023-09-30T14:39:26;6.50;;;1.40;;
76729;SDS011;65653;53.106;18.046;2023-09-30T14:41:53;4.30;;;1.60;;
76729;SDS011;65653;53.106;18.046;2023-09-30T14:44:19;4.40;;;1.50;;
76729;SDS011;65653;53.106;18.046;2023-09-30T14:46:48;4.20;;;1.50;;
76729;SDS011;65653;53.106;18.046;2023-09-30T14:49:14;6.30;;;2.00;;
76729;SDS011;65653;53.106;18.046;2023-09-30T14:51:41;4.80;;;2.00;;
76729;SDS011;65653;53.106;18.046;2023-09-30T14:54:07;4.60;;;1.40;;
76729;SDS011;65653;53.106;18.046;2023-09-30T14:56:34;5.30;;;1.60;;
76729;SDS011;65653;53.106;18.046;2023-09-30T14:59:00;4.80;;;1.70;;
76729;SDS011;65653;53.106;18.046;2023-09-30T15:01:27;3.90;;;1.20;;